Latest Weather Observations for Cape Flattery

IDQ60801

Issued at 2:32 am EST Wednesday 26 April 2017 (issued every 30 minutes, with the page automatically refreshed every 10 minutes)

About weather observations | Map of weather stations | Latest weather observations for QLD | Other Formats
Station Details ID: 031213 Name: CAPE FLATTERY Lat: -14.97 Lon: 145.31 Height: 18.5 m
Data from the previous 72 hours. | See also: Recent months at Cape Flattery
Date/Time
EST
Temp
°C
App
Temp
°C
Dew
Point
°C
Rel
Hum
%
Delta-T
°C
Wind Press
QNH
hPa
Press
MSL
hPa
Rain since
9am
mm
Dir  Spd
km/h
Gust
km/h
Spd
kts
Gust
kts
26/02:30am 25.8 25.3 20.8 74 3.3 SE 24 32 13 17 1012.5 1012.4 0.2
26/02:00am 26.1 25.2 20.7 72 3.5 SE 26 35 14 19 1013.0 1012.9 0.2
26/01:30am 26.1 25.8 21.1 74 3.3 SE 24 33 13 18 1013.3 1013.2 0.2
26/01:00am 26.1 24.9 20.9 73 3.4 SE 28 39 15 21 1013.4 1013.3 0.2
26/12:30am 26.1 25.4 21.1 74 3.3 SE 26 35 14 19 1013.9 1013.8 0.2
26/12:00am 26.3 25.8 21.5 75 3.2 SE 26 35 14 19 1014.1 1014.0 0.2
 
Date/Time
EST
Temp
°C
App
Temp
°C
Dew
Point
°C
Rel
Hum
%
Delta-T
°C
Wind Press
QNH
hPa
Press
MSL
hPa
Rain since
9am
mm
Dir  Spd
km/h
Gust
km/h
Spd
kts
Gust
kts
25/11:30pm 26.3 26.4 21.9 77 2.9 SE 24 32 13 17 1014.3 1014.2 0.2
25/11:00pm 26.5 26.4 22.3 78 2.8 SE 26 41 14 22 1014.4 1014.3 0.2
25/10:30pm 26.4 26.8 22.5 79 2.6 SE 24 33 13 18 1014.5 1014.4 0.2
25/10:00pm 25.8 26.3 22.7 83 2.1 ESE 24 35 13 19 1014.6 1014.5 0.2
25/09:30pm 26.4 26.3 22.3 78 2.8 SE 26 41 14 22 1014.6 1014.5 0.2
25/09:00pm 26.4 26.5 22.5 79 2.6 SE 26 35 14 19 1014.5 1014.4 0.2
25/08:30pm 26.3 25.8 22.8 81 2.4 SE 30 41 16 22 1014.2 1014.1 0.2
25/08:00pm 26.5 26.3 22.8 80 2.5 SE 28 37 15 20 1013.9 1013.8 0.2
25/07:30pm 26.7 26.6 22.3 77 3.0 SE 26 35 14 19 1013.6 1013.5 0.2
25/07:00pm 26.7 26.5 22.8 79 2.6 SE 28 35 15 19 1013.1 1013.0 0.2
25/06:30pm 26.6 26.3 21.8 75 3.2 SE 26 35 14 19 1012.9 1012.8 0.2
25/06:00pm 26.7 26.3 22.3 77 3.0 SE 28 37 15 20 1012.5 1012.4 0.2
25/05:30pm 26.9 26.8 22.3 76 3.1 SE 26 35 14 19 1012.4 1012.3 0.2
25/05:00pm 27.3 27.4 22.5 75 3.2 SE 26 37 14 20 1012.1 1012.0 0.2
25/04:30pm 27.6 27.1 22.1 72 3.7 SE 28 39 15 21 1011.8 1011.7 0.2
25/04:00pm 28.7 28.1 22.0 67 4.5 SE 28 35 15 19 1011.6 1011.5 0.2
25/03:30pm 28.6 28.2 22.3 68 4.3 SE 28 35 15 19 1011.6 1011.5 0.2
25/03:00pm 29.4 28.8 22.6 67 4.6 SE 30 41 16 22 1011.9 1011.8 0.2
25/02:30pm 29.1 28.6 22.8 69 4.3 SE 30 37 16 20 1012.0 1011.9 0.2
25/02:00pm 29.3 27.9 22.0 64 4.9 SE 32 43 17 23 1012.3 1012.2 0.2
25/01:30pm 29.4 28.8 22.6 67 4.6 SE 30 39 16 21 1012.6 1012.5 0.2
25/01:00pm 29.3 28.9 22.3 66 4.7 SE 28 37 15 20 1013.0 1012.9 0.2
25/12:30pm 29.6 29.7 23.3 69 4.3 SE 28 41 15 22 1013.3 1013.2 0.2
25/12:00pm 28.9 27.6 22.4 68 4.4 SE 33 44 18 24 1013.7 1013.6 0.2
25/11:30am 28.8 27.3 22.8 70 4.1 SE 35 46 19 25 1014.0 1013.9 0.2
25/11:00am 28.7 27.2 21.7 66 4.7 SE 32 44 17 24 1014.4 1014.3 0.2
25/10:30am 28.7 27.6 22.4 68 4.3 SE 32 41 17 22 1014.7 1014.6 0.2
25/10:00am 28.8 28.3 22.8 70 4.1 SE 30 39 16 21 1015.1 1015.0 0.2
25/09:30am 28.6 27.7 22.8 71 4.0 SE 32 41 17 22 1015.0 1014.9 0.0
25/09:00am 27.0 26.0 22.0 74 3.4 SE 30 43 16 23 1014.9 1014.8 0.4
25/08:30am 27.3 26.3 22.7 76 3.1 SE 32 44 17 24 1014.7 1014.6 0.4
25/08:00am 26.2 25.1 21.8 77 2.9 SE 30 41 16 22 1014.4 1014.3 0.4
25/07:30am 25.9 25.9 22.4 81 2.4 SSE 26 35 14 19 1014.1 1014.0 0.4
25/07:00am 25.7 23.9 21.1 76 3.0 SE 32 43 17 23 1013.7 1013.6 0.4
25/06:30am 25.6 24.0 21.5 78 2.7 SE 32 41 17 22 1013.2 1013.1 0.4
25/06:00am 25.5 24.4 21.8 80 2.5 SE 30 43 16 23 1012.9 1012.8 0.4
25/05:30am 25.1 25.6 22.6 86 1.7 SSE 24 32 13 17 1012.8 1012.7 0.4
25/05:00am 24.6 23.7 22.1 86 1.7 SSE 30 43 16 23 1012.6 1012.5 0.4
25/04:30am 24.9 24.1 22.4 86 1.7 SE 30 39 16 21 1012.4 1012.3 0.4
25/04:00am 24.6 24.4 22.1 86 1.7 SE 26 37 14 20 1012.3 1012.2 0.4
25/03:30am 24.4 23.9 22.1 87 1.5 SE 28 39 15 21 1012.2 1012.1 0.4
25/03:00am 24.2 24.3 22.5 90 1.1 SE 26 35 14 19 1012.2 1012.1 0.4
25/02:30am 24.7 25.0 22.2 86 1.7 ESE 24 39 13 21 1012.2 1012.1 0.4
25/02:00am 25.9 24.3 21.6 77 2.9 SE 32 48 17 26 1012.5 1012.4 0.4
25/01:30am 26.1 25.1 22.0 78 2.7 SE 30 43 16 23 1012.7 1012.6 0.4
25/01:00am 25.9 24.8 21.8 78 2.7 SE 30 43 16 23 1013.1 1013.0 0.4
25/12:30am 26.0 25.4 21.9 78 2.7 SE 28 37 15 20 1013.4 1013.3 0.4
25/12:00am 26.1 24.9 21.5 76 3.1 SE 30 41 16 22 1013.8 1013.7 0.4
 
Date/Time
EST
Temp
°C
App
Temp
°C
Dew
Point
°C
Rel
Hum
%
Delta-T
°C
Wind Press
QNH
hPa
Press
MSL
hPa
Rain since
9am
mm
Dir  Spd
km/h
Gust
km/h
Spd
kts
Gust
kts
24/11:30pm 26.4 25.3 21.8 76 3.1 SE 30 43 16 23 1014.0 1013.9 0.4
24/11:00pm 26.2 24.7 21.8 77 2.9 SE 32 43 17 23 1014.1 1014.0 0.4
24/10:30pm 26.2 25.1 22.5 80 2.5 SE 32 46 17 25 1014.3 1014.2 0.4
24/10:00pm 25.9 24.5 22.0 79 2.6 SE 32 43 17 23 1014.5 1014.4 0.4
24/09:30pm 26.4 25.0 22.0 77 2.9 SE 32 43 17 23 1014.6 1014.5 0.4
24/09:00pm 26.4 24.5 22.0 77 2.9 SE 35 46 19 25 1014.3 1014.2 0.4
24/08:30pm 26.4 24.6 22.3 78 2.8 SE 35 46 19 25 1014.2 1014.1 0.4
24/08:00pm 26.4 25.0 22.3 78 2.8 SE 33 44 18 24 1013.8 1013.7 0.4
24/07:30pm 26.4 25.3 21.8 76 3.1 SE 30 44 16 24 1013.5 1013.4 0.4
24/07:00pm 26.4 24.6 22.3 78 2.8 SE 35 46 19 25 1013.1 1013.0 0.4
24/06:30pm 26.3 24.7 21.9 77 2.9 SE 33 50 18 27 1013.1 1013.0 0.4
24/06:26pm 26.2 24.7 21.8 77 2.9 SE 32 50 17 27 1013.1 1013.0 0.4
24/06:00pm 26.4 24.9 22.0 77 2.9 SE 33 46 18 25 1013.0 1012.9 0.4
24/05:30pm 26.3 24.0 21.3 74 3.3 SE 35 46 19 25 1012.8 1012.7 0.4
24/05:00pm 26.9 25.0 22.1 75 3.2 SE 35 46 19 25 1012.7 1012.6 0.4
24/04:30pm 27.2 25.4 22.2 74 3.4 SE 35 46 19 25 1012.5 1012.4 0.4
24/04:00pm 27.4 25.7 22.4 74 3.4 SE 35 46 19 25 1012.2 1012.1 0.4
24/03:30pm 27.1 26.7 23.1 79 2.7 SE 30 41 16 22 1012.2 1012.1 0.4
24/03:00pm 24.8 25.1 22.3 86 1.7 ESE 24 39 13 21 1012.5 1012.4 0.4
24/02:30pm 25.8 24.5 22.1 80 2.5 ESE 32 44 17 24 1012.7 1012.6 0.2
24/02:29pm 26.0 24.7 22.1 79 2.6 ESE 32 44 17 24 1012.7 1012.6 0.2
24/02:00pm 29.0 27.0 22.5 68 4.4 SE 37 48 20 26 1012.6 1012.5 0.2
24/01:30pm 28.5 26.1 21.8 67 4.5 SE 37 46 20 25 1013.0 1012.9 0.2
24/01:00pm 29.1 27.5 21.8 64 4.9 SE 33 46 18 25 1013.4 1013.3 0.2
24/12:30pm 29.1 27.9 22.3 66 4.6 SE 32 43 17 23 1013.7 1013.6 0.2
24/12:00pm 28.5 25.9 21.5 66 4.7 SE 37 50 20 27 1014.1 1014.0 0.2
24/11:30am 29.0 27.2 22.2 66 4.6 SE 35 48 19 26 1014.4 1014.3 0.2
24/11:00am 28.4 26.2 21.4 66 4.7 SE 35 48 19 26 1014.9 1014.8 0.2
24/10:30am 28.4 26.3 21.7 67 4.5 SE 35 50 19 27 1015.0 1014.9 0.2
24/10:00am 28.9 27.1 22.2 67 4.5 SE 35 52 19 28 1015.0 1014.9 0.0
24/09:57am 28.6 26.8 21.6 66 4.7 SE 33 52 18 28 1015.0 1014.9 0.0
24/09:30am 27.8 26.5 22.5 73 3.6 SE 33 46 18 25 1015.0 1014.9 0.0
24/09:00am 26.7 25.1 21.9 75 3.2 SE 33 48 18 26 1014.8 1014.7 0.0
24/08:30am 26.4 25.6 22.3 78 2.8 SE 30 44 16 24 1014.3 1014.2 0.0
24/08:00am 25.9 24.6 22.4 81 2.4 SE 33 48 18 26 1014.0 1013.9 0.0
24/07:30am 25.1 23.7 22.0 83 2.1 SE 32 46 17 25 1013.7 1013.6 0.0
24/07:00am 24.9 26.0 23.0 89 1.3 SE 22 35 12 19 1013.5 1013.4 0.0
24/06:33am 24.7 23.5 22.6 88 1.4 SE 33 52 18 28 1013.2 1013.1 0.0
24/06:30am 24.6 23.2 22.3 87 1.5 SE 33 48 18 26 1013.2 1013.1 0.0
24/06:00am 25.0 24.2 22.3 85 1.8 SE 30 41 16 22 1012.8 1012.7 0.0
24/05:43am 25.9 24.1 21.6 77 2.9 SE 33 56 18 30 1012.6 1012.5 0.0
24/05:30am 26.2 24.6 21.8 77 2.9 SE 33 46 18 25 1012.4 1012.3 0.0
24/05:18am 26.1 25.1 22.0 78 2.7 SE 30 48 16 26 1012.4 1012.3 0.0
24/05:00am 26.1 24.7 22.0 78 2.7 SE 32 46 17 25 1012.4 1012.3 0.0
24/04:30am 25.8 24.3 21.7 78 2.7 SE 32 44 17 24 1012.3 1012.2 0.0
24/04:00am 26.0 24.0 21.9 78 2.7 SE 35 44 19 24 1012.4 1012.3 0.0
24/03:30am 25.9 23.9 21.8 78 2.7 SE 35 52 19 28 1012.5 1012.4 0.0
24/03:00am 25.8 24.0 21.2 76 3.0 SE 32 46 17 25 1012.6 1012.5 0.0
24/02:30am 25.8 24.1 21.7 78 2.7 SE 33 44 18 24 1012.8 1012.7 0.0
24/02:00am 25.9 23.9 21.8 78 2.7 SE 35 46 19 25 1012.9 1012.8 0.0
24/01:30am 25.9 23.9 21.8 78 2.7 SE 35 44 19 24 1013.4 1013.3 0.0
24/01:00am 25.9 23.9 21.8 78 2.7 SSE 35 46 19 25 1013.6 1013.5 0.0
24/12:30am 26.3 24.2 21.7 76 3.1 SE 35 44 19 24 1013.9 1013.8 0.0
24/12:00am 26.2 25.5 21.8 77 2.9 SE 28 43 15 23 1014.3 1014.2 0.0
 
Date/Time
EST
Temp
°C
App
Temp
°C
Dew
Point
°C
Rel
Hum
%
Delta-T
°C
Wind Press
QNH
hPa
Press
MSL
hPa
Rain since
9am
mm
Dir  Spd
km/h
Gust
km/h
Spd
kts
Gust
kts
23/11:30pm 26.2 24.9 21.4 75 3.2 SE 30 41 16 22 1014.7 1014.6 0.0
23/11:00pm 26.1 24.8 21.3 75 3.2 SE 30 41 16 22 1014.7 1014.6 0.0
23/10:30pm 26.2 25.1 21.8 77 2.9 SE 30 39 16 21 1015.0 1014.9 0.0
23/10:00pm 26.2 25.3 21.4 75 3.2 SE 28 39 15 21 1015.2 1015.1 0.0
23/09:30pm 25.7 23.6 20.5 73 3.4 SE 32 43 17 23 1015.4 1015.3 0.0
23/09:00pm 26.6 25.3 21.4 73 3.5 SE 30 43 16 23 1015.2 1015.1 0.0
23/08:30pm 26.0 26.1 21.9 78 2.7 SE 24 35 13 19 1015.2 1015.1 0.0
23/08:00pm 25.5 23.7 21.2 77 2.8 SE 32 48 17 26 1015.1 1015.0 0.0
23/07:56pm 26.3 25.0 21.3 74 3.3 SE 30 48 16 26 1014.9 1014.8 0.0
23/07:30pm 26.6 25.9 21.1 72 3.6 SE 26 39 14 21 1014.4 1014.3 0.0
23/07:00pm 26.5 25.7 21.7 75 3.2 SE 28 39 15 21 1014.0 1013.9 0.0
23/06:30pm 26.6 24.2 20.4 69 4.1 SE 33 46 18 25 1013.6 1013.5 0.0
23/06:00pm 26.6 24.8 21.6 74 3.3 SE 33 44 18 24 1013.1 1013.0 0.0
23/05:30pm 26.8 24.7 20.9 70 3.9 SE 33 46 18 25 1012.7 1012.6 0.0
23/05:00pm 27.0 24.1 20.8 69 4.1 SSE 37 50 20 27 1012.2 1012.1 0.0
23/04:30pm 27.4 24.0 20.7 67 4.4 SSE 39 52 21 28 1012.0 1011.9 0.0
23/04:00pm 28.1 25.5 21.4 67 4.5 SE 37 54 20 29 1011.9 1011.8 0.0
23/03:30pm 28.5 25.9 21.5 66 4.7 SE 37 48 20 26 1012.1 1012.0 0.0
23/03:00pm 29.0 26.3 21.2 62 5.2 SE 37 48 20 26 1012.0 1011.9 0.0
23/02:30pm 29.4 27.3 21.6 63 5.2 SE 35 44 19 24 1012.5 1012.4 0.0
23/02:00pm 29.2 26.6 20.6 59 5.7 SE 35 46 19 25 1012.9 1012.8 0.0
23/01:30pm 29.2 27.3 21.4 63 5.2 SE 33 44 18 24 1013.6 1013.5 0.0
23/01:00pm 28.7 26.7 21.2 64 5.0 SE 33 46 18 25 1013.9 1013.8 0.0
23/12:30pm 29.3 27.4 22.0 64 4.9 SE 35 44 19 24 1014.1 1014.0 0.0
23/12:00pm 28.7 26.7 21.2 64 5.0 SE 33 46 18 25 1014.5 1014.4 0.0
23/11:30am 29.1 26.7 21.1 62 5.3 SE 35 46 19 25 1014.9 1014.8 0.0
23/11:05am 28.3 26.5 21.1 65 4.8 SE 32 50 17 27 1015.2 1015.1 0.0
23/11:00am 28.4 26.7 21.7 67 4.5 SE 33 46 18 25 1015.3 1015.2 0.0
23/10:30am 28.8 27.3 22.1 67 4.5 SE 33 46 18 25 1015.4 1015.3 0.0
23/10:00am 27.8 25.7 20.9 66 4.6 SE 33 48 18 26 1015.6 1015.5 0.0
23/09:30am 28.1 26.1 21.1 65 4.7 SE 33 44 18 24 1015.2 1015.1 0.0
23/09:00am 27.9 26.0 21.0 66 4.6 SE 32 46 17 25 1014.8 1014.7 3.2
23/08:30am 26.9 24.5 21.0 70 3.9 SE 35 46 19 25 1014.3 1014.2 3.2
23/08:14am 26.6 24.2 21.1 72 3.6 SE 35 54 19 29 1014.1 1014.0 3.2
23/08:00am 26.2 24.3 21.0 73 3.4 SE 32 44 17 24 1013.9 1013.8 3.2
23/07:30am 26.2 24.1 21.0 73 3.4 SE 33 48 18 26 1013.7 1013.6 3.2
23/07:10am 26.1 24.6 20.9 73 3.4 SE 30 48 16 26 1013.4 1013.3 3.2
23/07:00am 25.9 23.6 20.5 72 3.5 SE 33 46 18 25 1013.2 1013.1 3.2
23/06:42am 25.8 23.7 20.6 73 3.4 SE 32 50 17 27 1013.0 1012.9 3.2
23/06:30am 25.8 23.5 20.6 73 3.4 SE 33 46 18 25 1012.7 1012.6 3.2
23/06:00am 25.8 23.4 20.4 72 3.5 SE 33 50 18 27 1012.4 1012.3 3.2
23/05:30am 25.8 23.7 20.6 73 3.4 SE 32 48 17 26 1012.2 1012.1 3.2
23/05:00am 25.8 23.5 20.6 73 3.4 SE 33 46 18 25 1012.0 1011.9 3.2
23/04:43am 25.8 23.6 20.4 72 3.5 SE 32 50 17 27 1012.1 1012.0 3.2
23/04:30am 25.8 23.6 20.8 74 3.3 SE 33 44 18 24 1012.1 1012.0 3.2
23/04:00am 26.0 24.0 20.8 73 3.4 SE 32 46 17 25 1012.2 1012.1 3.2
23/03:30am 25.9 23.3 20.7 73 3.4 SE 35 48 19 26 1012.1 1012.0 3.2
23/03:00am 25.9 23.8 20.9 74 3.3 SE 33 44 18 24 1012.3 1012.2 3.2

Other Formats:

Comma delimited format used in spreadsheet applications
http://www.bom.gov.au/fwo/IDQ60801/IDQ60801.94188.axf

JavaScript Object Notation format (JSON) in row-major order
http://www.bom.gov.au/fwo/IDQ60801/IDQ60801.94188.json